createdAt,value
2022-08-08T00:03:53.213Z,16.96
2022-08-08T00:09:01.049Z,17.03
2022-08-08T00:14:49.205Z,17.08
2022-08-08T00:19:56.835Z,17.1
2022-08-08T00:25:04.253Z,17.06
2022-08-08T00:30:12.558Z,17.01
2022-08-08T00:35:20.372Z,17.02
2022-08-08T00:40:29.528Z,17.0
2022-08-08T00:45:35.576Z,16.96
2022-08-08T00:50:43.411Z,16.94
2022-08-08T00:55:51.292Z,17.03
2022-08-08T01:00:59.347Z,17.02
2022-08-08T01:06:07.017Z,17.01
2022-08-08T01:11:14.712Z,17.02
2022-08-08T01:16:23.122Z,17.1
2022-08-08T01:21:31.299Z,17.17
2022-08-08T01:26:40.643Z,17.14
2022-08-08T01:31:48.490Z,17.1
2022-08-08T01:36:56.681Z,17.08
2022-08-08T01:42:04.973Z,17.02
2022-08-08T01:47:12.512Z,16.98
2022-08-08T01:52:19.556Z,16.89
2022-08-08T01:57:27.256Z,16.88
2022-08-08T02:02:34.745Z,16.83
2022-08-08T02:07:41.660Z,16.82
2022-08-08T02:12:48.857Z,16.78
2022-08-08T02:17:56.725Z,16.7
2022-08-08T02:23:04.414Z,16.65
2022-08-08T02:28:11.612Z,16.65
2022-08-08T02:33:19.585Z,16.61
2022-08-08T02:38:27.874Z,16.52
2022-08-08T02:43:35.653Z,16.44
2022-08-08T02:48:43.102Z,16.35
2022-08-08T02:53:51.325Z,16.38
2022-08-08T02:58:59.113Z,16.32
2022-08-08T03:04:05.981Z,16.41
2022-08-08T03:09:13.174Z,16.33
2022-08-08T03:14:20.691Z,16.25
2022-08-08T03:19:28.404Z,16.2
2022-08-08T03:24:36.089Z,16.21
2022-08-08T03:29:43.242Z,16.22
2022-08-08T03:34:50.803Z,16.07
2022-08-08T03:39:58.489Z,15.8
2022-08-08T03:45:06.018Z,15.58
2022-08-08T03:50:13.332Z,15.49
2022-08-08T03:55:21.132Z,15.33
2022-08-08T04:00:28.371Z,15.39
2022-08-08T04:05:36.236Z,15.56
2022-08-08T04:10:45.203Z,15.88
2022-08-08T04:15:53.125Z,16.4
2022-08-08T04:21:01.614Z,17.02
2022-08-08T04:26:08.937Z,17.51
2022-08-08T04:31:16.700Z,17.56
2022-08-08T04:36:23.899Z,17.8
2022-08-08T04:41:31.727Z,18.14
2022-08-08T04:46:39.978Z,18.41
2022-08-08T04:51:47.421Z,18.52
2022-08-08T04:56:55.329Z,18.62
2022-08-08T05:02:03.808Z,19.06
2022-08-08T05:07:25.530Z,19.26
2022-08-08T05:12:33.805Z,19.39
2022-08-08T05:17:42.482Z,19.51
2022-08-08T05:22:50.982Z,19.79
2022-08-08T05:27:59.479Z,20.53
2022-08-08T05:33:07.468Z,21.03
2022-08-08T05:38:14.633Z,21.02
2022-08-08T05:43:22.739Z,20.8
2022-08-08T05:48:36.107Z,20.82
2022-08-08T05:53:45.072Z,20.9
2022-08-08T05:58:52.411Z,21.22
2022-08-08T06:04:01.142Z,21.69
2022-08-08T06:09:12.245Z,22.17
2022-08-08T06:14:21.030Z,22.6
2022-08-08T06:19:28.160Z,23.26
2022-08-08T06:24:34.825Z,24.29
2022-08-08T06:29:44.813Z,24.2
2022-08-08T06:34:52.385Z,23.52
2022-08-08T06:40:01.364Z,23.16
2022-08-08T06:45:09.336Z,22.92
2022-08-08T06:50:16.561Z,22.71
2022-08-08T06:55:24.889Z,22.9
2022-08-08T07:00:33.991Z,23.08
2022-08-08T07:05:49.224Z,22.98
2022-08-08T07:10:56.259Z,22.96
2022-08-08T07:16:04.064Z,23.16
2022-08-08T07:21:12.541Z,23.44
2022-08-08T07:26:20.409Z,23.6
2022-08-08T07:31:27.771Z,23.42
2022-08-08T07:36:35.447Z,23.3
2022-08-08T07:41:42.607Z,23.0
2022-08-08T07:46:49.402Z,22.53
2022-08-08T07:51:56.063Z,22.01
2022-08-08T07:57:03.612Z,21.61
2022-08-08T08:02:10.844Z,21.44
2022-08-08T08:07:19.344Z,21.56
2022-08-08T08:12:26.459Z,21.93
2022-08-08T08:17:33.048Z,22.4
2022-08-08T08:22:39.689Z,22.88
2022-08-08T08:27:47.487Z,22.98
2022-08-08T08:32:55.946Z,22.8
2022-08-08T08:38:04.440Z,22.73
2022-08-08T08:43:12.334Z,22.67
2022-08-08T08:48:19.417Z,22.86
2022-08-08T08:53:27.723Z,22.75
2022-08-08T08:58:35.797Z,22.81
2022-08-08T09:03:43.139Z,22.8
2022-08-08T09:08:50.788Z,22.62
2022-08-08T09:13:58.758Z,22.53
2022-08-08T09:19:06.919Z,22.61
2022-08-08T09:24:13.653Z,22.66
2022-08-08T09:29:21.622Z,23.03
2022-08-08T09:34:28.697Z,23.23
2022-08-08T09:39:36.531Z,23.57
2022-08-08T09:44:43.715Z,23.66
2022-08-08T09:49:51.982Z,23.78
2022-08-08T09:54:59.689Z,23.96
2022-08-08T10:00:07.121Z,24.02
2022-08-08T10:05:14.483Z,24.49
2022-08-08T10:10:21.690Z,25.49
2022-08-08T10:15:30.158Z,25.81
2022-08-08T10:20:38.547Z,25.84
2022-08-08T10:25:46.454Z,25.82
2022-08-08T10:30:54.695Z,26.32
2022-08-08T10:36:03.025Z,27.02
2022-08-08T10:41:12.257Z,27.9
2022-08-08T10:47:51.896Z,29.18
2022-08-08T10:52:57.817Z,29.58
2022-08-08T10:58:05.904Z,29.42
2022-08-08T11:03:14.070Z,28.74
2022-08-08T11:08:22.759Z,28.28
2022-08-08T11:13:30.244Z,28.42
2022-08-08T11:18:37.876Z,28.97
2022-08-08T11:23:46.154Z,29.5
2022-08-08T11:28:53.911Z,30.07
2022-08-08T11:34:01.393Z,30.36
2022-08-08T11:39:09.254Z,30.93
2022-08-08T11:44:16.222Z,31.73
2022-08-08T11:49:25.406Z,32.38
2022-08-08T11:54:32.641Z,33.17
2022-08-08T11:59:40.760Z,33.98
2022-08-08T12:04:47.604Z,34.26
2022-08-08T12:09:55.590Z,32.76
2022-08-08T12:15:03.212Z,31.46
2022-08-08T12:20:11.302Z,31.28
2022-08-08T12:25:19.509Z,30.79
2022-08-08T12:30:27.833Z,30.38
2022-08-08T12:35:35.445Z,30.52
2022-08-08T12:40:42.965Z,30.92
2022-08-08T12:45:51.249Z,32.7
2022-08-08T12:50:58.141Z,31.96
2022-08-08T12:56:05.337Z,30.56
2022-08-08T13:01:13.105Z,29.39
2022-08-08T13:06:20.385Z,28.86
2022-08-08T13:11:28.408Z,28.62
2022-08-08T13:16:35.799Z,28.62
2022-08-08T13:21:43.256Z,28.4
2022-08-08T13:26:51.288Z,28.22
2022-08-08T13:31:57.870Z,27.22
2022-08-08T13:37:04.854Z,26.57
2022-08-08T13:42:11.415Z,26.19
2022-08-08T13:50:46.549Z,26.66
2022-08-08T13:55:52.251Z,26.25
2022-08-08T14:01:00.363Z,26.28
2022-08-08T14:06:06.945Z,26.26
2022-08-08T14:11:14.833Z,26.28
2022-08-08T14:16:22.871Z,26.04
2022-08-08T14:21:29.839Z,25.52
2022-08-08T14:26:37.724Z,25.34
2022-08-08T14:31:44.520Z,25.23
2022-08-08T14:36:53.207Z,25.17
2022-08-08T14:42:03.641Z,25.22
2022-08-08T14:47:11.973Z,25.1
2022-08-08T14:52:20.221Z,25.2
2022-08-08T14:57:28.122Z,25.14
2022-08-08T15:02:34.493Z,24.92
2022-08-08T15:07:41.810Z,25.06
2022-08-08T15:12:50.731Z,27.76
2022-08-08T15:17:58.960Z,28.73
2022-08-08T15:23:05.189Z,27.56
2022-08-08T15:28:12.405Z,26.23
2022-08-08T15:33:19.503Z,25.22
2022-08-08T15:38:27.359Z,24.33
2022-08-08T15:43:34.178Z,23.44
2022-08-08T15:48:42.125Z,22.85
2022-08-08T15:53:49.526Z,22.17
2022-08-08T15:58:57.032Z,21.79
2022-08-08T16:04:04.774Z,21.64
2022-08-08T16:09:11.895Z,21.46
2022-08-08T16:14:19.594Z,21.42
2022-08-08T16:19:28.316Z,21.4
2022-08-08T16:24:34.774Z,21.28
2022-08-08T16:29:43.749Z,21.2
2022-08-08T16:34:51.729Z,21.19
2022-08-08T16:39:58.885Z,21.16
2022-08-08T16:45:05.929Z,21.01
2022-08-08T16:50:14.258Z,20.73
2022-08-08T16:55:22.235Z,20.38
2022-08-08T17:00:31.125Z,20.09
2022-08-08T17:05:38.998Z,19.88
2022-08-08T17:10:47.364Z,19.66
2022-08-08T17:15:55.505Z,19.52
2022-08-08T17:21:03.181Z,19.43
2022-08-08T17:26:10.775Z,19.34
2022-08-08T17:31:17.977Z,19.26
2022-08-08T17:36:25.172Z,19.22
2022-08-08T17:41:32.943Z,19.17
2022-08-08T17:46:40.206Z,19.11
2022-08-08T17:51:47.412Z,19.02
2022-08-08T17:56:55.355Z,18.94
2022-08-08T18:02:03.317Z,18.9
2022-08-08T18:07:11.601Z,18.79
2022-08-08T18:12:20.633Z,18.72
2022-08-08T18:17:27.961Z,18.67
2022-08-08T18:22:36.066Z,18.48
2022-08-08T18:27:43.732Z,18.3
2022-08-08T18:32:51.279Z,18.16
2022-08-08T18:37:57.969Z,17.99
2022-08-08T18:43:05.811Z,17.82
2022-08-08T18:48:13.009Z,17.58
2022-08-08T18:53:20.543Z,17.26
2022-08-08T18:58:28.478Z,16.9
2022-08-08T19:03:35.570Z,16.6
2022-08-08T19:08:43.559Z,16.43
2022-08-08T19:13:50.680Z,16.32
2022-08-08T19:18:58.734Z,16.21
2022-08-08T19:24:05.369Z,16.09
2022-08-08T19:29:14.073Z,15.97
2022-08-08T19:34:35.775Z,15.84
2022-08-08T19:39:44.550Z,15.71
2022-08-08T19:44:51.910Z,15.66
2022-08-08T19:49:59.253Z,15.63
2022-08-08T19:55:06.966Z,15.58
2022-08-08T20:00:15.732Z,15.56
2022-08-08T20:05:24.590Z,15.54
2022-08-08T20:10:32.715Z,15.51
2022-08-08T20:15:40.311Z,15.47
2022-08-08T20:20:49.198Z,15.44
2022-08-08T20:25:55.715Z,15.22
2022-08-08T20:31:03.546Z,15.03
2022-08-08T20:36:11.043Z,14.78
2022-08-08T20:41:19.444Z,14.66
2022-08-08T20:46:26.730Z,14.58
2022-08-08T20:51:35.769Z,14.53
2022-08-08T20:56:43.688Z,14.39
2022-08-08T21:01:50.943Z,14.21
2022-08-08T21:06:59.648Z,14.04
2022-08-08T21:12:08.266Z,13.94
2022-08-08T21:17:16.781Z,13.94
2022-08-08T21:22:23.579Z,14.04
2022-08-08T21:27:30.282Z,14.01
2022-08-08T21:32:37.980Z,13.89
2022-08-08T21:37:46.247Z,13.78
2022-08-08T21:42:55.233Z,13.6
2022-08-08T21:48:02.162Z,13.29
2022-08-08T21:53:10.478Z,13.14
2022-08-08T21:58:18.819Z,12.88
2022-08-08T22:03:27.510Z,12.75
2022-08-08T22:08:44.956Z,12.54
2022-08-08T22:13:53.236Z,12.47
2022-08-08T22:19:00.050Z,12.5
2022-08-08T22:24:08.422Z,12.51
2022-08-08T22:29:18.230Z,12.34
2022-08-08T22:34:27.279Z,12.29
2022-08-08T22:39:35.414Z,12.14
2022-08-08T22:44:43.606Z,12.13
2022-08-08T22:49:52.191Z,12.12
2022-08-08T22:55:00.470Z,12.2
2022-08-08T23:00:08.224Z,12.08
2022-08-08T23:05:16.246Z,11.97
2022-08-08T23:10:22.967Z,11.85
2022-08-08T23:15:31.564Z,11.72
2022-08-08T23:20:39.632Z,11.61
2022-08-08T23:25:45.815Z,11.63
2022-08-08T23:30:53.660Z,11.66
2022-08-08T23:36:01.801Z,11.57
2022-08-08T23:41:09.936Z,11.78
2022-08-08T23:46:17.944Z,11.8
2022-08-08T23:51:26.294Z,11.6
2022-08-08T23:56:33.614Z,11.51
